Accueil
METAR-TAF:

METAR-TAF

Aéroports :

Dinard, France

Aéroport de Dinard Pleurtuit Saint-Malo

latitude: 48-35N, longitude: 002-04W, altitude: 65 m

Observation

Le bulletin a été fait il y a 40 minutes, à 16:00 UTC
Vent 10 kt de nord-est
Température 6°C
Humidité 61%
Pression 1018 hPa
Visibilité 10 km ou plus
pas de nuages en-dessous de 1500 mètres et pas de cumulonimbus.

METAR: LFRD 221600Z AUTO 04010KT CAVOK 06/M01 Q1018 NOSIG

Heure: 17:40 (16:40 UTC)

Prévision

Le bulletin a été fait il y a 5 heures et 40 minutes, à 11:00 UTC
Prévision valable du 22 à 12 UTC au 23 à 12 UTC
Vent 13 kt de est/nord-est
Visibilité: 7000 m
Temporairement
du 23 à 02 UTC au 23 à 09 UTC
Visibilité: 4000 m
brume

TAF: LFRD 221100Z 2212/2312 06013KT 7000 NSC TEMPO 2302/2309 4000 BR

Observations et prévisions météorologiques de plus de 4000 aéroports (messages METAR et TAF).

Les stations disponibles sont représentées par des disques jaunes et rouges sur la carte.

Passer la souris dessus pour voir le nom de la station.

Cliquer dessus pour voir les observations et prévisions météorologiques.

Pour changer de carte: cliquez sur les boutons verts avec une croix noire pour zoomer, sur le bouton vert avec un tiret pour effectuer un zoom arrière, ou sur les flèches vertes pour les cartes adjacentes.


METAR-TAF: